Time;durP1;ratioP1;P1;durP2;ratioP2;P2;SDS_P1;SDS_P2;PMS_P1;PMS_P2;Temp;Humidity;BMP_temperature;BMP_pressure;BME280_temperature;BME280_humidity;BME280_pressure;Samples;Min_cycle;Max_cycle;Signal;HPM_P1;HPM_P2
2022/03/03 00:00:51;;;;;;;9.50;7.87;;;1.80;99.90;;;;;;5071683;28;20479;-46
2022/03/03 00:03:18;;;;;;;14.90;8.30;;;1.80;99.90;;;;;;5071635;28;20468;-46
2022/03/03 00:05:45;;;;;;;11.00;8.30;;;1.80;99.90;;;;;;5071477;28;20857;-48
2022/03/03 00:08:13;;;;;;;11.83;8.27;;;1.80;99.90;;;;;;5071761;28;20508;-46
2022/03/03 00:10:40;;;;;;;9.47;7.13;;;1.70;99.90;;;;;;5071434;28;20769;-46
2022/03/03 00:13:08;;;;;;;9.07;8.17;;;1.80;99.90;;;;;;5071519;28;20452;-46
2022/03/03 00:15:35;;;;;;;11.10;8.03;;;1.90;99.90;;;;;;5071343;28;20471;-49
2022/03/03 00:18:03;;;;;;;7.90;7.20;;;1.90;99.90;;;;;;5071102;28;20472;-47
2022/03/03 00:20:30;;;;;;;7.60;6.80;;;1.90;99.90;;;;;;5071199;28;20475;-47
2022/03/03 00:22:57;;;;;;;8.03;6.77;;;1.90;99.90;;;;;;5071307;28;20965;-46
2022/03/03 00:25:25;;;;;;;7.77;6.97;;;1.90;99.90;;;;;;5071288;28;20494;-49
2022/03/03 00:27:52;;;;;;;8.67;6.90;;;2.00;99.90;;;;;;5071281;28;20501;-48
2022/03/03 00:30:19;;;;;;;6.80;5.20;;;2.00;99.90;;;;;;5071309;28;20472;-46
2022/03/03 00:32:46;;;;;;;6.60;6.10;;;2.10;99.90;;;;;;5071184;28;20445;-48
2022/03/03 00:35:14;;;;;;;8.33;5.97;;;2.30;99.90;;;;;;5071138;28;20529;-47
2022/03/03 00:37:41;;;;;;;5.87;5.27;;;2.40;99.90;;;;;;5129665;22;20521;-52
2022/03/03 00:40:09;;;;;;;7.07;6.10;;;2.40;99.70;;;;;;5070978;28;20468;-52
2022/03/03 00:42:38;;;;;;;7.50;6.57;;;2.40;99.30;;;;;;5071394;28;20441;-52
2022/03/03 00:45:05;;;;;;;7.60;5.33;;;2.20;99.00;;;;;;5071429;28;20492;-52
2022/03/03 00:47:33;;;;;;;6.23;5.57;;;2.00;99.30;;;;;;5071129;28;20600;-52
2022/03/03 00:50:00;;;;;;;9.50;5.33;;;1.80;99.70;;;;;;5071012;28;20526;-52
2022/03/03 00:52:27;;;;;;;8.20;6.27;;;1.90;99.90;;;;;;5070961;28;20536;-52
2022/03/03 00:54:54;;;;;;;10.23;6.93;;;2.10;99.90;;;;;;5071293;28;20572;-52
2022/03/03 00:57:21;;;;;;;9.50;6.57;;;2.20;99.90;;;;;;5071238;28;20463;-52
2022/03/03 00:59:49;;;;;;;9.47;7.37;;;2.30;99.90;;;;;;5071029;28;20544;-52
2022/03/03 01:02:16;;;;;;;7.33;6.53;;;2.50;99.90;;;;;;5071023;28;20479;-54
2022/03/03 01:04:43;;;;;;;7.80;5.57;;;2.40;99.90;;;;;;5070979;28;20458;-53
2022/03/03 01:07:10;;;;;;;5.80;4.77;;;2.50;99.90;;;;;;5070976;28;20492;-52
2022/03/03 01:09:36;;;;;;;7.17;5.00;;;2.40;99.80;;;;;;5071753;28;20518;-55
2022/03/03 01:12:04;;;;;;;5.90;4.40;;;2.40;99.60;;;;;;5075015;28;20873;-52
2022/03/03 01:14:31;;;;;;;6.93;5.17;;;2.30;99.50;;;;;;5074658;28;20498;-52
2022/03/03 01:16:59;;;;;;;7.20;5.30;;;2.20;99.20;;;;;;5074783;28;20488;-53
2022/03/03 01:19:26;;;;;;;6.30;4.80;;;1.70;99.30;;;;;;5073913;28;20473;-52
2022/03/03 01:21:53;;;;;;;7.90;4.70;;;1.40;99.90;;;;;;5074670;28;20486;-53
2022/03/03 01:24:20;;;;;;;5.07;4.50;;;1.10;99.90;;;;;;5075046;28;20480;-53
2022/03/03 01:26:47;;;;;;;5.20;4.67;;;1.00;99.90;;;;;;5074704;28;20496;-54
2022/03/03 01:29:14;;;;;;;6.93;5.00;;;1.00;99.90;;;;;;5074533;28;20559;-52
2022/03/03 01:31:41;;;;;;;7.57;5.27;;;0.90;99.90;;;;;;5074639;28;20472;-52
2022/03/03 01:34:10;;;;;;;5.80;4.67;;;0.90;99.90;;;;;;5074416;28;20448;-54
2022/03/03 01:36:37;;;;;;;6.10;5.13;;;0.90;99.90;;;;;;5074429;28;20533;-52
2022/03/03 01:39:05;;;;;;;7.43;5.60;;;0.90;99.90;;;;;;5073956;28;20549;-52
2022/03/03 01:41:34;;;;;;;6.90;4.97;;;0.90;99.90;;;;;;5074309;28;21006;-54
2022/03/03 01:44:01;;;;;;;11.80;6.00;;;0.90;99.90;;;;;;5074368;28;20491;-53
2022/03/03 01:46:27;;;;;;;7.53;5.67;;;1.10;99.90;;;;;;5074053;28;20491;-52
2022/03/03 01:48:54;;;;;;;7.90;5.70;;;1.30;99.90;;;;;;5074045;28;20753;-52
2022/03/03 01:51:23;;;;;;;5.97;5.37;;;1.40;99.90;;;;;;5074096;28;20468;-52
2022/03/03 01:53:50;;;;;;;6.77;6.07;;;1.40;99.90;;;;;;5074174;28;20486;-53
2022/03/03 01:56:18;;;;;;;5.53;5.07;;;1.50;99.90;;;;;;5073915;28;20488;-54
2022/03/03 01:58:46;;;;;;;9.57;5.90;;;1.50;99.90;;;;;;5073960;28;20519;-54
2022/03/03 02:01:15;;;;;;;8.20;5.90;;;1.50;99.90;;;;;;5073612;28;20942;-52
2022/03/03 02:03:42;;;;;;;5.43;4.93;;;1.60;99.90;;;;;;5074062;28;20452;-53
2022/03/03 02:06:09;;;;;;;5.50;4.93;;;1.80;99.90;;;;;;5074112;28;20513;-53
2022/03/03 02:08:37;;;;;;;6.03;4.10;;;1.90;99.90;;;;;;5073905;28;21060;-53
2022/03/03 02:11:04;;;;;;;4.93;4.53;;;2.10;99.70;;;;;;5073919;28;20472;-55
2022/03/03 02:13:31;;;;;;;6.90;5.10;;;2.20;99.40;;;;;;5073323;28;20449;-54
2022/03/03 02:15:58;;;;;;;5.27;4.53;;;2.30;99.10;;;;;;5073704;28;20462;-54
2022/03/03 02:18:25;;;;;;;6.90;4.80;;;2.40;98.70;;;;;;5073379;28;20484;-53
2022/03/03 02:20:53;;;;;;;4.57;4.17;;;2.50;98.40;;;;;;5072568;28;20464;-53
2022/03/03 02:23:20;;;;;;;4.57;4.17;;;2.50;97.80;;;;;;5073648;28;20480;-53
2022/03/03 02:25:47;;;;;;;6.50;5.87;;;2.30;97.30;;;;;;5073537;28;20476;-53
2022/03/03 02:28:14;;;;;;;6.93;5.47;;;2.30;98.00;;;;;;5073692;28;20508;-53
2022/03/03 02:30:41;;;;;;;7.00;5.17;;;2.20;98.00;;;;;;5073254;28;20532;-54
2022/03/03 02:33:08;;;;;;;5.30;4.80;;;2.20;98.40;;;;;;5073404;28;20480;-52
2022/03/03 02:35:35;;;;;;;7.13;4.70;;;2.30;98.30;;;;;;5073377;28;20487;-52
2022/03/03 02:38:04;;;;;;;5.17;4.67;;;2.40;98.30;;;;;;5073205;28;20499;-53
2022/03/03 02:40:31;;;;;;;5.40;4.90;;;2.30;98.20;;;;;;5073014;28;20457;-52
2022/03/03 02:42:58;;;;;;;7.43;5.77;;;1.70;97.50;;;;;;5073432;28;20527;-52
2022/03/03 02:45:25;;;;;;;5.37;4.03;;;1.20;98.80;;;;;;5073269;28;20448;-53
2022/03/03 02:47:52;;;;;;;5.37;4.40;;;0.80;99.20;;;;;;5072994;28;20904;-52
2022/03/03 02:50:22;;;;;;;4.13;3.73;;;0.60;99.30;;;;;;5073016;28;20472;-54
2022/03/03 02:52:49;;;;;;;4.50;4.07;;;0.70;99.70;;;;;;5072973;28;20441;-53
2022/03/03 02:55:18;;;;;;;5.40;4.20;;;1.00;99.20;;;;;;5072981;28;20451;-52
2022/03/03 02:57:54;;;;;;;5.23;3.90;;;1.10;99.10;;;;;;5072872;28;20474;-52
2022/03/03 03:00:21;;;;;;;6.10;4.30;;;1.30;99.20;;;;;;5072719;28;20440;-54
2022/03/03 03:02:48;;;;;;;4.83;4.07;;;1.30;99.30;;;;;;5073373;28;20479;-53
2022/03/03 03:05:15;;;;;;;5.33;4.83;;;1.40;99.30;;;;;;5072547;28;20476;-54
2022/03/03 03:07:42;;;;;;;7.80;4.63;;;1.50;99.30;;;;;;5072837;28;20493;-54
2022/03/03 03:10:09;;;;;;;4.50;3.50;;;1.60;99.20;;;;;;5072214;28;21088;-53
2022/03/03 03:12:37;;;;;;;5.40;4.63;;;1.70;98.90;;;;;;5072831;28;20468;-54
2022/03/03 03:15:06;;;;;;;5.80;4.63;;;1.70;98.30;;;;;;5072619;28;20487;-53
2022/03/03 03:17:32;;;;;;;5.57;4.07;;;1.50;97.80;;;;;;5072555;28;20492;-53
2022/03/03 03:19:59;;;;;;;4.53;4.13;;;1.50;97.90;;;;;;5072073;28;20511;-52
2022/03/03 03:22:26;;;;;;;4.40;3.57;;;1.30;98.00;;;;;;5072388;28;21008;-52
2022/03/03 03:24:53;;;;;;;5.10;4.27;;;1.20;97.80;;;;;;5072708;28;20448;-53
2022/03/03 03:27:20;;;;;;;3.50;3.03;;;1.20;98.30;;;;;;5072396;28;20547;-54
2022/03/03 03:29:48;;;;;;;4.60;3.90;;;1.20;98.60;;;;;;5071961;28;20563;-55
2022/03/03 03:32:15;;;;;;;4.53;3.73;;;1.30;99.00;;;;;;5072257;28;20484;-52
2022/03/03 03:34:42;;;;;;;5.03;4.07;;;1.40;99.40;;;;;;5072147;28;20531;-52
2022/03/03 03:37:09;;;;;;;3.63;3.10;;;1.50;99.40;;;;;;5072199;28;20555;-52
2022/03/03 03:39:36;;;;;;;3.83;3.43;;;1.10;98.70;;;;;;5072151;28;20475;-53
2022/03/03 03:42:04;;;;;;;9.83;3.70;;;1.10;98.90;;;;;;5071964;28;20987;-53
2022/03/03 03:44:31;;;;;;;5.13;3.30;;;1.20;98.90;;;;;;5072023;28;20468;-53
2022/03/03 03:46:59;;;;;;;3.80;3.00;;;1.20;99.00;;;;;;5072145;28;21162;-54
2022/03/03 03:49:27;;;;;;;3.00;2.70;;;1.30;98.90;;;;;;5072221;28;21043;-55
2022/03/03 03:51:54;;;;;;;4.27;2.90;;;1.20;98.80;;;;;;5071799;28;20471;-52
2022/03/03 03:54:21;;;;;;;2.90;2.53;;;1.20;98.50;;;;;;5071767;28;20477;-54
2022/03/03 03:56:48;;;;;;;3.50;2.23;;;1.10;98.00;;;;;;5071620;28;20496;-54
2022/03/03 03:59:15;;;;;;;3.77;3.10;;;0.60;97.60;;;;;;5071565;28;20433;-54
2022/03/03 04:01:42;;;;;;;5.40;2.73;;;0.40;98.60;;;;;;5071597;28;20480;-52
2022/03/03 04:04:10;;;;;;;4.47;2.63;;;0.10;99.50;;;;;;5071925;28;20912;-52
2022/03/03 04:06:38;;;;;;;3.37;3.07;;;-0.20;99.80;;;;;;5071688;28;20498;-55
2022/03/03 04:09:05;;;;;;;3.53;3.23;;;-0.20;99.90;;;;;;5071469;28;20481;-52
2022/03/03 04:11:32;;;;;;;3.73;3.30;;;-0.30;99.90;;;;;;5071626;28;20972;-53
2022/03/03 04:13:59;;;;;;;4.90;3.93;;;-0.30;99.90;;;;;;5071032;28;20535;-53
2022/03/03 04:16:26;;;;;;;8.93;3.97;;;0.10;99.90;;;;;;5071213;28;20543;-53
2022/03/03 04:18:54;;;;;;;4.00;3.40;;;0.40;99.90;;;;;;5071134;28;20465;-52
2022/03/03 04:21:22;;;;;;;5.00;4.37;;;0.70;99.90;;;;;;5071249;28;20480;-54
2022/03/03 04:23:49;;;;;;;4.00;3.60;;;0.80;99.90;;;;;;5071638;28;20472;-53
2022/03/03 04:26:16;;;;;;;4.50;3.33;;;0.70;99.80;;;;;;5071688;28;20543;-52
2022/03/03 04:28:43;;;;;;;5.23;3.63;;;0.70;99.50;;;;;;5071286;28;20964;-53
2022/03/03 04:31:10;;;;;;;5.17;3.53;;;0.20;99.90;;;;;;5071246;28;20546;-52
2022/03/03 04:33:37;;;;;;;7.33;3.87;;;0.10;99.90;;;;;;5071434;28;20479;-52
2022/03/03 04:36:05;;;;;;;4.67;3.97;;;0.10;99.90;;;;;;5071055;28;20555;-55
2022/03/03 04:38:33;;;;;;;3.73;3.30;;;0.30;99.90;;;;;;5071665;28;20897;-53
2022/03/03 04:41:00;;;;;;;5.50;3.30;;;0.50;99.90;;;;;;5071320;28;20483;-53
2022/03/03 04:43:27;;;;;;;4.07;3.40;;;0.60;99.90;;;;;;5071389;28;20468;-52
2022/03/03 04:45:54;;;;;;;5.53;2.57;;;0.80;99.90;;;;;;5070798;28;20468;-54
2022/03/03 04:48:23;;;;;;;3.00;2.30;;;0.80;99.90;;;;;;5071123;28;20892;-54
2022/03/03 04:50:49;;;;;;;4.27;2.63;;;0.80;99.70;;;;;;5070797;28;21009;-52
2022/03/03 04:53:16;;;;;;;4.93;4.43;;;0.90;98.80;;;;;;5070928;28;20975;-52
2022/03/03 04:55:45;;;;;;;3.50;3.20;;;0.90;98.80;;;;;;5071155;28;20527;-52
2022/03/03 04:58:12;;;;;;;4.93;3.37;;;0.80;99.50;;;;;;5071169;28;20532;-52
2022/03/03 05:00:39;;;;;;;3.30;2.90;;;0.80;99.90;;;;;;5071073;28;20464;-54
2022/03/03 05:03:05;;;;;;;2.87;2.67;;;1.10;99.80;;;;;;5071053;28;20535;-53
2022/03/03 05:05:32;;;;;;;2.20;1.97;;;0.90;98.90;;;;;;5070893;28;20469;-52
2022/03/03 05:07:59;;;;;;;3.90;2.83;;;1.00;98.50;;;;;;5071024;28;20551;-53
2022/03/03 05:10:26;;;;;;;5.63;3.27;;;0.90;98.80;;;;;;5071108;28;20575;-52
2022/03/03 05:12:55;;;;;;;5.10;2.73;;;1.10;99.30;;;;;;5070952;28;20494;-54
2022/03/03 05:15:22;;;;;;;5.60;3.17;;;1.20;99.40;;;;;;5070500;28;20893;-54
2022/03/03 05:17:48;;;;;;;4.27;2.77;;;1.30;99.50;;;;;;5070404;28;20503;-53
2022/03/03 05:20:15;;;;;;;3.63;2.47;;;1.40;99.30;;;;;;5070892;28;20474;-52
2022/03/03 05:22:42;;;;;;;1.90;1.80;;;1.50;98.90;;;;;;5071078;28;20869;-53
2022/03/03 05:25:10;;;;;;;3.03;2.20;;;1.40;98.00;;;;;;5070853;28;20527;-53
2022/03/03 05:27:37;;;;;;;3.13;2.80;;;1.40;97.80;;;;;;5070668;28;20491;-53
2022/03/03 05:30:09;;;;;;;2.57;2.13;;;1.20;97.70;;;;;;5070579;28;20564;-53
2022/03/03 05:32:36;;;;;;;6.50;2.40;;;0.70;97.90;;;;;;5071017;28;20480;-53
2022/03/03 05:35:03;;;;;;;4.77;2.47;;;0.80;98.50;;;;;;5070849;28;20453;-54
2022/03/03 05:37:30;;;;;;;3.50;3.20;;;0.90;98.70;;;;;;5070570;28;20514;-52
2022/03/03 05:39:57;;;;;;;2.97;2.20;;;0.90;98.60;;;;;;5070436;28;20479;-55
2022/03/03 05:42:24;;;;;;;12.17;8.80;;;0.90;98.50;;;;;;5070594;28;20472;-52
2022/03/03 05:44:52;;;;;;;15.80;11.00;;;0.40;98.40;;;;;;5070802;28;20451;-54
2022/03/03 05:47:21;;;;;;;16.40;10.13;;;0.00;99.00;;;;;;5070832;28;20495;-52
2022/03/03 05:49:50;;;;;;;10.30;8.80;;;0.10;99.40;;;;;;5070438;28;20587;-54
2022/03/03 05:52:18;;;;;;;25.00;22.00;;;0.20;99.30;;;;;;5071095;28;20444;-52
2022/03/03 05:54:45;;;;;;;16.13;13.87;;;0.10;98.70;;;;;;5070563;28;20475;-53
2022/03/03 05:57:18;;;;;;;11.00;8.50;;;0.20;98.80;;;;;;5072306;28;20491;-52
2022/03/03 05:59:48;;;;;;;7.43;5.83;;;0.40;99.00;;;;;;5074154;28;20469;-53
2022/03/03 06:02:15;;;;;;;10.40;7.03;;;0.50;98.90;;;;;;5074190;28;20468;-54
2022/03/03 06:04:43;;;;;;;8.40;7.60;;;0.30;98.90;;;;;;5074088;28;20991;-52
2022/03/03 06:07:11;;;;;;;13.50;12.20;;;0.30;99.10;;;;;;5073898;28;20495;-52
2022/03/03 06:09:38;;;;;;;5.57;4.90;;;0.40;99.00;;;;;;5073976;28;21047;-52
2022/03/03 06:12:07;;;;;;;6.70;6.03;;;0.60;99.00;;;;;;5074067;28;20901;-52
2022/03/03 06:14:44;;;;;;;10.93;9.83;;;0.80;98.90;;;;;;5073494;28;20441;-52
2022/03/03 06:17:11;;;;;;;5.90;5.30;;;0.80;98.30;;;;;;5073427;28;20502;-55
2022/03/03 06:19:41;;;;;;;7.17;6.43;;;0.70;98.20;;;;;;5073210;28;20476;-52
2022/03/03 06:22:10;;;;;;;5.20;4.40;;;0.60;98.30;;;;;;5073540;28;20440;-53
2022/03/03 06:24:38;;;;;;;2.43;2.33;;;0.60;98.60;;;;;;5073780;28;20483;-52
2022/03/03 06:27:05;;;;;;;4.83;3.40;;;0.40;98.50;;;;;;5073049;28;20555;-52
2022/03/03 06:29:33;;;;;;;3.40;3.10;;;0.00;99.40;;;;;;5072531;28;20523;-54
2022/03/03 06:32:00;;;;;;;3.13;2.83;;;-0.20;99.90;;;;;;5073054;28;20451;-53
2022/03/03 06:34:27;;;;;;;4.93;4.53;;;-0.60;99.90;;;;;;5073423;28;20486;-52
2022/03/03 06:36:55;;;;;;;4.53;4.03;;;-0.30;99.90;;;;;;5074228;28;20472;-52
2022/03/03 06:39:23;;;;;;;4.60;3.70;;;0.00;99.90;;;;;;5072882;28;20872;-53
2022/03/03 06:41:51;;;;;;;5.20;3.43;;;0.30;99.90;;;;;;5072896;28;20475;-52
2022/03/03 06:44:18;;;;;;;4.40;4.00;;;0.30;99.90;;;;;;5073025;28;20469;-53
2022/03/03 06:46:45;;;;;;;4.73;4.33;;;0.50;99.90;;;;;;5072734;28;20498;-54
2022/03/03 06:49:13;;;;;;;8.50;4.70;;;0.70;99.70;;;;;;5072762;28;20472;-53
2022/03/03 06:51:41;;;;;;;8.40;5.30;;;0.80;99.10;;;;;;5072703;28;20535;-54
2022/03/03 06:54:13;;;;;;;4.00;3.43;;;1.00;99.10;;;;;;5072841;28;20476;-52
2022/03/03 06:56:47;;;;;;;4.27;3.20;;;1.00;99.20;;;;;;5072394;28;20488;-52
2022/03/03 06:59:16;;;;;;;4.67;3.10;;;1.10;98.70;;;;;;5072184;28;20448;-53
2022/03/03 07:01:46;;;;;;;4.63;3.43;;;1.10;98.00;;;;;;5072432;28;20450;-53
2022/03/03 07:04:14;;;;;;;4.73;3.10;;;1.00;97.70;;;;;;5072270;28;20948;-52
2022/03/03 07:06:42;;;;;;;5.10;3.17;;;0.90;98.70;;;;;;5071593;28;20482;-52
2022/03/03 07:09:09;;;;;;;4.17;2.73;;;1.10;98.70;;;;;;5071395;28;20524;-53
2022/03/03 07:11:39;;;;;;;4.70;4.30;;;1.30;98.60;;;;;;5071868;28;21033;-52
2022/03/03 07:14:07;;;;;;;3.17;2.90;;;1.20;98.10;;;;;;5071902;28;20775;-53
2022/03/03 07:16:41;;;;;;;2.70;2.40;;;1.20;97.50;;;;;;5071749;28;20487;-53
2022/03/03 07:19:18;;;;;;;1.90;1.80;;;1.20;96.80;;;;;;5071373;28;20467;-53
2022/03/03 07:21:59;;;;;;;2.40;2.20;;;1.00;96.70;;;;;;5071858;28;20630;-52
2022/03/03 07:24:30;;;;;;;3.77;2.50;;;0.40;98.10;;;;;;5071632;28;20485;-52
2022/03/03 07:27:00;;;;;;;3.93;2.50;;;0.70;98.50;;;;;;5071715;28;20897;-52
2022/03/03 07:29:31;;;;;;;1.83;1.73;;;0.80;98.20;;;;;;5071387;28;20877;-51
2022/03/03 07:32:00;;;;;;;2.70;1.60;;;0.70;97.90;;;;;;5071793;28;20857;-51
2022/03/03 07:34:31;;;;;;;5.37;2.83;;;0.80;98.00;;;;;;5070247;28;20540;-53
2022/03/03 07:37:03;;;;;;;2.33;2.13;;;0.90;97.70;;;;;;5070516;28;20989;-51
2022/03/03 07:39:38;;;;;;;2.50;2.20;;;1.00;97.80;;;;;;5071332;28;20850;-51
2022/03/03 07:42:05;;;;;;;1.60;1.50;;;1.00;97.60;;;;;;5071798;28;20502;-51
2022/03/03 07:44:35;;;;;;;3.00;2.03;;;1.00;97.10;;;;;;5071390;28;20530;-52
2022/03/03 07:47:03;;;;;;;3.90;2.67;;;0.30;97.20;;;;;;5071312;28;20492;-52
2022/03/03 07:49:31;;;;;;;2.83;2.50;;;0.10;98.40;;;;;;5071350;28;20442;-54
2022/03/03 07:51:58;;;;;;;3.27;2.20;;;-0.30;99.90;;;;;;5070653;28;20972;-52
2022/03/03 07:54:25;;;;;;;3.20;2.33;;;-0.40;99.90;;;;;;5071313;28;20435;-52
2022/03/03 07:56:57;;;;;;;2.17;1.70;;;-0.30;99.90;;;;;;5071355;28;20504;-51
2022/03/03 07:59:33;;;;;;;2.63;1.70;;;-0.10;99.90;;;;;;5071473;28;20504;-54
2022/03/03 08:02:04;;;;;;;1.60;1.47;;;0.10;99.80;;;;;;5071694;28;20441;-53
2022/03/03 08:04:33;;;;;;;4.50;2.40;;;0.30;99.70;;;;;;5070236;28;20481;-52
2022/03/03 08:07:05;;;;;;;3.20;2.30;;;0.40;99.40;;;;;;5070698;28;20470;-51
2022/03/03 08:09:33;;;;;;;2.50;1.70;;;0.30;98.80;;;;;;5071040;28;20491;-51
2022/03/03 08:12:04;;;;;;;2.77;2.57;;;0.40;99.10;;;;;;5071079;28;20479;-51
2022/03/03 08:14:31;;;;;;;1.83;1.60;;;0.50;99.30;;;;;;5070561;28;20485;-51
2022/03/03 08:16:58;;;;;;;1.90;1.70;;;0.60;99.10;;;;;;5071133;28;20494;-51
2022/03/03 08:19:26;;;;;;;2.40;1.70;;;0.70;98.40;;;;;;5070182;28;20448;-52
2022/03/03 08:21:53;;;;;;;3.13;1.67;;;0.10;98.20;;;;;;5071288;28;20531;-52
2022/03/03 08:24:20;;;;;;;2.73;2.53;;;-0.10;98.30;;;;;;5071249;28;20500;-52
2022/03/03 08:26:47;;;;;;;3.93;2.43;;;0.00;99.90;;;;;;5071581;28;20804;-51
2022/03/03 08:29:14;;;;;;;3.07;2.77;;;0.20;99.90;;;;;;5070895;28;20963;-51
2022/03/03 08:31:43;;;;;;;2.73;2.40;;;0.40;99.90;;;;;;5071220;28;20567;-51
2022/03/03 08:34:19;;;;;;;4.60;3.00;;;0.60;99.90;;;;;;5071387;28;20675;-53
2022/03/03 08:36:54;;;;;;;3.37;3.07;;;0.80;99.70;;;;;;5070761;28;20471;-53
2022/03/03 08:39:26;;;;;;;5.70;3.33;;;0.90;99.70;;;;;;5070966;28;20451;-52
2022/03/03 08:41:57;;;;;;;12.57;7.00;;;1.00;99.90;;;;;;5069878;28;20506;-51
2022/03/03 08:44:28;;;;;;;7.47;5.10;;;0.80;99.50;;;;;;5069779;28;20464;-52
2022/03/03 08:46:58;;;;;;;12.13;6.13;;;1.00;99.70;;;;;;5069724;28;20546;-52
2022/03/03 08:49:29;;;;;;;9.73;4.73;;;0.90;99.50;;;;;;5069391;28;20477;-52
2022/03/03 08:51:58;;;;;;;3.57;3.00;;;1.00;99.60;;;;;;5069714;28;20480;-52
2022/03/03 08:54:25;;;;;;;2.60;2.40;;;0.90;99.90;;;;;;5069804;28;20472;-52
2022/03/03 08:56:52;;;;;;;4.20;2.63;;;0.70;99.90;;;;;;5071007;28;20462;-52
2022/03/03 08:59:19;;;;;;;2.20;2.10;;;0.70;99.90;;;;;;5069754;28;20481;-52
2022/03/03 09:01:46;;;;;;;2.97;2.20;;;0.80;99.90;;;;;;5069207;28;20984;-52
2022/03/03 09:04:13;;;;;;;2.40;2.20;;;0.90;99.90;;;;;;5069715;28;20846;-52
2022/03/03 09:06:40;;;;;;;3.67;2.60;;;1.00;99.90;;;;;;5069568;28;20547;-51
2022/03/03 09:09:08;;;;;;;6.17;4.10;;;1.20;99.90;;;;;;5069170;28;20977;-52
2022/03/03 09:11:35;;;;;;;5.20;3.80;;;1.30;99.90;;;;;;5069219;28;20856;-51
2022/03/03 09:14:02;;;;;;;4.43;3.50;;;1.20;99.90;;;;;;5069543;28;20873;-51
2022/03/03 09:16:29;;;;;;;5.77;3.07;;;1.20;99.90;;;;;;5070648;28;20507;-53
2022/03/03 09:18:56;;;;;;;5.50;3.73;;;1.30;99.90;;;;;;5070213;28;20881;-52
2022/03/03 09:21:23;;;;;;;7.90;3.80;;;1.40;99.90;;;;;;5070857;28;20688;-52
2022/03/03 09:23:50;;;;;;;6.33;4.37;;;1.40;99.90;;;;;;5070562;28;20460;-53
2022/03/03 09:26:18;;;;;;;5.30;3.60;;;1.50;99.90;;;;;;5070908;28;20493;-52
2022/03/03 09:28:45;;;;;;;7.43;5.00;;;1.70;99.90;;;;;;5070737;28;20950;-52
2022/03/03 09:31:12;;;;;;;5.03;4.53;;;1.70;99.90;;;;;;5072489;28;20559;-52
2022/03/03 09:33:39;;;;;;;5.27;4.67;;;1.60;99.90;;;;;;5074353;28;20487;-52
2022/03/03 09:36:06;;;;;;;9.63;5.40;;;1.80;99.90;;;;;;5074030;28;20917;-53
2022/03/03 09:38:33;;;;;;;6.47;5.40;;;1.80;99.90;;;;;;5074994;28;20502;-51
2022/03/03 09:41:00;;;;;;;8.33;5.03;;;1.90;99.90;;;;;;5074270;28;20433;-55
2022/03/03 09:43:30;;;;;;;4.90;4.50;;;2.00;99.90;;;;;;5074468;28;20914;-52
2022/03/03 09:45:57;;;;;;;9.60;6.30;;;2.00;99.80;;;;;;5074295;28;21000;-52
2022/03/03 09:48:24;;;;;;;7.17;6.57;;;2.30;99.60;;;;;;5074180;28;20473;-52
2022/03/03 09:50:51;;;;;;;6.67;5.07;;;2.60;99.60;;;;;;5074057;28;20556;-52
2022/03/03 09:53:18;;;;;;;4.17;3.77;;;2.80;98.40;;;;;;5074573;28;20527;-52
2022/03/03 09:55:47;;;;;;;4.23;3.83;;;2.90;97.00;;;;;;5074080;28;21006;-51
2022/03/03 09:58:14;;;;;;;6.20;5.53;;;2.90;97.50;;;;;;5074427;28;20475;-55
2022/03/03 10:00:43;;;;;;;6.33;4.23;;;3.00;98.10;;;;;;5073995;28;20441;-52
2022/03/03 10:03:13;;;;;;;4.60;4.17;;;3.20;97.80;;;;;;5074276;28;20443;-53
2022/03/03 10:05:42;;;;;;;7.70;4.40;;;3.40;97.60;;;;;;5073886;28;20521;-52
2022/03/03 10:08:11;;;;;;;6.17;4.03;;;3.50;97.50;;;;;;5073585;28;20524;-52
2022/03/03 10:10:40;;;;;;;5.77;4.30;;;3.60;97.10;;;;;;5072364;28;20562;-52
2022/03/03 10:13:08;;;;;;;7.77;5.07;;;3.60;97.10;;;;;;5071997;28;20471;-52
2022/03/03 10:15:36;;;;;;;8.17;4.20;;;3.50;97.10;;;;;;5072353;28;21050;-52
2022/03/03 10:18:06;;;;;;;6.63;4.20;;;3.50;97.90;;;;;;5071628;28;20444;-53
2022/03/03 10:20:47;;;;;;;5.23;4.47;;;3.60;98.30;;;;;;5072506;28;20526;-54
2022/03/03 10:23:14;;;;;;;5.57;4.30;;;3.80;98.20;;;;;;5072264;28;20924;-52
2022/03/03 10:25:44;;;;;;;7.10;3.53;;;4.00;98.00;;;;;;5073595;28;20479;-52
2022/03/03 10:28:17;;;;;;;2.60;2.40;;;4.20;97.80;;;;;;5073477;28;20447;-52
2022/03/03 10:30:57;;;;;;;3.43;2.80;;;4.40;97.00;;;;;;5072998;28;20562;-54
2022/03/03 10:33:29;;;;;;;8.60;3.20;;;4.60;95.10;;;;;;5071986;28;20448;-54
2022/03/03 10:36:09;;;;;;;7.73;4.37;;;4.70;96.50;;;;;;5071478;28;20447;-54
2022/03/03 10:38:46;;;;;;;4.13;3.70;;;4.90;96.60;;;;;;5071912;28;20900;-52
2022/03/03 10:41:37;;;;;;;5.80;4.80;;;5.00;95.70;;;;;;5071832;28;20953;-53
2022/03/03 10:44:07;;;;;;;9.13;5.50;;;5.10;96.30;;;;;;5071520;28;20539;-52
2022/03/03 10:46:36;;;;;;;5.10;4.10;;;5.20;96.00;;;;;;5072447;28;20491;-52
2022/03/03 10:49:20;;;;;;;10.30;3.90;;;5.30;96.10;;;;;;5073037;28;20480;-55
2022/03/03 10:51:47;;;;;;;16.50;3.40;;;5.40;95.80;;;;;;5071933;28;20552;-53
2022/03/03 10:54:15;;;;;;;3.90;3.50;;;5.50;95.50;;;;;;5072685;28;20469;-52
2022/03/03 10:56:44;;;;;;;5.40;4.00;;;5.60;94.80;;;;;;5071477;28;20535;-53
2022/03/03 10:59:17;;;;;;;4.33;3.17;;;5.60;94.00;;;;;;5071840;28;20741;-52
2022/03/03 11:01:45;;;;;;;3.00;2.50;;;5.70;92.90;;;;;;5071177;28;20444;-54
2022/03/03 11:04:17;;;;;;;4.80;2.60;;;5.70;93.00;;;;;;5071474;28;20535;-54
2022/03/03 11:06:48;;;;;;;18.03;4.60;;;5.70;93.60;;;;;;5071326;28;20465;-52
2022/03/03 11:09:16;;;;;;;3.97;2.53;;;5.80;94.20;;;;;;5071136;28;20531;-53
2022/03/03 11:11:43;;;;;;;2.90;2.40;;;5.80;92.00;;;;;;5072718;28;20559;-53
2022/03/03 11:14:11;;;;;;;3.50;2.67;;;5.80;92.40;;;;;;5071037;28;20544;-53
2022/03/03 11:16:41;;;;;;;2.73;2.20;;;5.90;93.50;;;;;;5070998;28;20460;-53
2022/03/03 11:19:09;;;;;;;3.70;2.50;;;5.90;91.00;;;;;;5070447;28;20456;-52
2022/03/03 11:21:35;;;;;;;2.13;1.90;;;5.90;91.70;;;;;;5071031;28;20887;-52
2022/03/03 11:24:04;;;;;;;3.20;1.80;;;5.80;91.10;;;;;;5070900;28;20531;-53
2022/03/03 11:26:35;;;;;;;1.97;1.77;;;5.80;91.20;;;;;;5070380;28;20496;-53
2022/03/03 11:29:09;;;;;;;2.47;1.60;;;5.90;90.40;;;;;;5070417;28;20481;-53
2022/03/03 11:31:37;;;;;;;1.70;1.20;;;6.00;91.00;;;;;;5067962;28;21197;-52
2022/03/03 11:34:29;;;;;;;2.23;2.03;;;6.00;91.40;;;;;;5062585;28;20826;-52
2022/03/03 11:37:06;;;;;;;2.30;2.10;;;6.00;91.30;;;;;;5059896;28;20527;-53
2022/03/03 11:39:39;;;;;;;5.00;2.70;;;6.10;90.60;;;;;;5061353;28;20481;-52
2022/03/03 11:42:18;;;;;;;3.77;2.10;;;6.20;90.50;;;;;;5067142;28;20547;-53
2022/03/03 11:44:45;;;;;;;4.40;3.07;;;6.40;90.60;;;;;;5072236;28;20578;-53
2022/03/03 11:47:23;;;;;;;2.60;2.37;;;6.60;90.80;;;;;;5072492;28;21015;-52
2022/03/03 11:50:16;;;;;;;4.20;2.70;;;6.70;91.00;;;;;;5071777;28;20537;-53
2022/03/03 11:52:45;;;;;;;4.10;2.23;;;6.90;91.60;;;;;;5071617;28;20476;-54
2022/03/03 11:55:29;;;;;;;3.27;2.40;;;6.60;90.50;;;;;;5071191;28;20483;-53
2022/03/03 11:58:00;;;;;;;2.90;2.70;;;6.50;92.00;;;;;;5070257;28;20889;-53
2022/03/03 12:00:28;;;;;;;2.97;2.60;;;6.50;90.80;;;;;;5072170;28;20451;-53
2022/03/03 12:03:07;;;;;;;3.23;2.93;;;6.50;91.80;;;;;;5071880;28;20436;-52
2022/03/03 12:05:36;;;;;;;3.37;3.07;;;6.50;92.60;;;;;;5071568;28;20436;-54
2022/03/03 12:08:05;;;;;;;3.53;3.23;;;6.50;93.00;;;;;;5071423;28;20467;-53
2022/03/03 12:10:35;;;;;;;4.77;2.63;;;6.80;92.50;;;;;;5069748;28;20941;-53
2022/03/03 12:13:25;;;;;;;3.33;3.03;;;6.90;91.90;;;;;;5069798;28;20483;-52
2022/03/03 12:16:28;;;;;;;39.27;6.50;;;7.10;90.50;;;;;;5070125;28;20448;-52
2022/03/03 12:19:11;;;;;;;5.53;3.23;;;7.00;91.00;;;;;;5069450;28;20963;-52
2022/03/03 12:21:41;;;;;;;2.63;2.23;;;6.80;92.30;;;;;;5070031;28;20441;-53
2022/03/03 12:24:31;;;;;;;3.20;2.43;;;6.80;89.90;;;;;;5070974;28;20444;-55
2022/03/03 12:27:17;;;;;;;2.63;2.43;;;6.80;88.90;;;;;;5071617;28;20982;-53
2022/03/03 12:29:57;;;;;;;2.63;2.43;;;6.80;90.40;;;;;;5070721;28;20881;-52
2022/03/03 12:32:44;;;;;;;3.47;2.80;;;6.80;92.40;;;;;;5071249;28;20480;-54
2022/03/03 12:35:30;;;;;;;3.43;3.13;;;6.80;92.60;;;;;;5071262;28;20479;-53
2022/03/03 12:38:00;;;;;;;4.37;2.77;;;7.20;91.20;;;;;;5072159;28;20476;-53
2022/03/03 12:40:29;;;;;;;5.50;2.90;;;7.40;91.30;;;;;;5070829;28;20812;-53
2022/03/03 12:42:58;;;;;;;3.77;3.23;;;7.60;92.30;;;;;;5071075;28;20498;-53
2022/03/03 12:45:25;;;;;;;3.63;3.00;;;7.80;91.00;;;;;;5071100;28;20921;-54
2022/03/03 12:47:54;;;;;;;4.90;2.97;;;7.70;92.00;;;;;;5071025;28;20464;-53
2022/03/03 12:50:22;;;;;;;4.27;3.03;;;7.70;93.10;;;;;;5070988;28;20444;-54
2022/03/03 12:53:01;;;;;;;3.73;3.33;;;7.80;92.10;;;;;;5071135;28;20568;-53
2022/03/03 12:55:30;;;;;;;3.47;3.17;;;7.70;90.50;;;;;;5071161;28;20482;-53
2022/03/03 12:57:59;;;;;;;3.13;2.83;;;7.60;88.10;;;;;;5069192;28;20547;-54
2022/03/03 13:00:27;;;;;;;4.00;2.80;;;7.60;87.60;;;;;;5069281;28;20484;-53
2022/03/03 13:02:55;;;;;;;4.30;3.07;;;7.60;87.20;;;;;;5069418;28;20471;-54
2022/03/03 13:05:34;;;;;;;5.83;3.70;;;7.70;89.20;;;;;;5069812;28;20476;-54